Airports Spain Gran Canaria Airport

Gran Canaria Airport (GCLP / LPA)

Facts about Gran Canaria Airport

Name Gran Canaria Airport
City Gran Canaria
Country Spain
ICAO code GCLP
IATA code LPA
Elevation 23.7744 meters (78 feet)

Weather

METAR

Metar data retrieved Saturday, 20 July 2024 at 00:55 UTC (8 minutes ago)

GCLP 200030Z 02018KT CAVOK 25/16 Q1016 NOSIG

Live traffic

Navigraph Charts (account required)